Terminal Aerodrome Forecast
Issued by NWS

Home | Current Version | Previous Version | Text Only | Print | Product List | Glossary On
Versions: 1 2 3 4 5 6 7 8 9 10 11 12 13 14 15 16 17 18 19 20 21
000
FTUS43 KDVN 192340
TAFBRL
TAF
KBRL 192340Z 2000/2024 08012KT P6SM OVC011
      TEMPO 2001/2003 4SM -TSRA BKN005CB
     FM200300 07014G20KT 5SM -RA BR OVC007
     FM200600 07015G22KT 3SM -DZ BR OVC007
      TEMPO 2009/2013 3SM -TSRA OVC008CB
     FM201600 14010KT 4SM BR OVC006 PROB30 2021/2024 3SM TSRA BR
      OVC008CB=

USA.gov is the U.S. government's official web portal to all federal, state and local government web resources and services.